Time;durP1;ratioP1;P1;durP2;ratioP2;P2;SDS_P1;SDS_P2;PMS_P1;PMS_P2;Temp;Humidity;BMP_temperature;BMP_pressure;BME280_temperature;BME280_humidity;BME280_pressure;Samples;Min_cycle;Max_cycle;Signal;HPM_P1;HPM_P2
2022/03/19 00:00:53;;;;;;;11.82;2.65;;;4.50;99.90;;;;;;4963998;28;20043;-59
2022/03/19 00:03:20;;;;;;;10.77;2.25;;;4.50;99.90;;;;;;4962362;29;20055;-59
2022/03/19 00:05:46;;;;;;;21.83;3.58;;;4.50;99.90;;;;;;4944201;29;20054;-59
2022/03/19 00:08:13;;;;;;;11.68;2.40;;;4.50;99.90;;;;;;4944686;29;20059;-59
2022/03/19 00:10:38;;;;;;;13.23;2.35;;;4.50;99.90;;;;;;4943784;29;20200;-58
2022/03/19 00:13:04;;;;;;;15.02;2.22;;;4.50;99.90;;;;;;4945095;29;20044;-58
2022/03/19 00:15:30;;;;;;;11.57;2.67;;;4.50;99.90;;;;;;4941795;29;20039;-58
2022/03/19 00:17:57;;;;;;;15.45;2.10;;;4.50;99.90;;;;;;4944849;29;20059;-58
2022/03/19 00:20:23;;;;;;;12.88;2.40;;;4.50;99.90;;;;;;4944087;29;20055;-59
2022/03/19 00:22:49;;;;;;;10.93;2.08;;;4.40;99.90;;;;;;4943896;29;20035;-58
2022/03/19 00:25:15;;;;;;;14.10;2.55;;;4.50;99.90;;;;;;4954948;29;20094;-59
2022/03/19 00:27:41;;;;;;;12.77;2.40;;;4.50;99.90;;;;;;4962655;29;20050;-59
2022/03/19 00:30:08;;;;;;;13.95;2.05;;;4.40;99.90;;;;;;4963786;29;20039;-58
2022/03/19 00:32:34;;;;;;;10.93;2.38;;;4.50;99.90;;;;;;4962493;29;20058;-58
2022/03/19 00:35:00;;;;;;;11.73;2.33;;;4.40;99.90;;;;;;4963583;28;20044;-59
2022/03/19 00:37:25;;;;;;;10.88;2.10;;;4.50;99.90;;;;;;4963080;29;20137;-58
2022/03/19 00:39:51;;;;;;;13.82;2.63;;;4.50;99.90;;;;;;4962886;28;20070;-58
2022/03/19 00:42:17;;;;;;;12.38;2.65;;;4.50;99.90;;;;;;4962790;28;20085;-58
2022/03/19 00:44:44;;;;;;;9.98;2.10;;;4.50;99.90;;;;;;4962305;29;20047;-58
2022/03/19 00:47:10;;;;;;;13.88;2.33;;;4.40;99.90;;;;;;4963259;29;20035;-59
2022/03/19 00:49:36;;;;;;;15.38;2.22;;;4.40;99.90;;;;;;4961816;29;20050;-59
2022/03/19 00:52:02;;;;;;;12.35;2.00;;;4.40;99.90;;;;;;4963463;29;20047;-59
2022/03/19 00:54:28;;;;;;;14.05;2.55;;;4.40;99.90;;;;;;4961037;29;20094;-58
2022/03/19 00:56:54;;;;;;;11.70;2.92;;;4.50;99.90;;;;;;4962657;29;20155;-59
2022/03/19 00:59:20;;;;;;;11.80;2.00;;;4.40;99.90;;;;;;4963097;28;20152;-59
2022/03/19 01:01:45;;;;;;;14.65;2.70;;;4.40;99.90;;;;;;4960874;29;20063;-58
2022/03/19 01:04:11;;;;;;;15.13;2.90;;;4.40;99.90;;;;;;4963161;29;20043;-59
2022/03/19 01:06:37;;;;;;;12.25;2.92;;;4.40;99.90;;;;;;4961712;29;20053;-59
2022/03/19 01:09:02;;;;;;;11.10;2.45;;;4.30;99.90;;;;;;4945922;29;20058;-59
2022/03/19 01:11:28;;;;;;;14.40;3.65;;;4.30;99.90;;;;;;4962333;29;20043;-58
2022/03/19 01:13:55;;;;;;;13.23;2.05;;;4.40;99.90;;;;;;4962433;28;20047;-59
2022/03/19 01:16:21;;;;;;;9.95;2.22;;;4.30;99.90;;;;;;4962234;28;20140;-58
2022/03/19 01:18:49;;;;;;;11.30;2.20;;;4.30;99.90;;;;;;4962097;28;20051;-59
2022/03/19 01:21:15;;;;;;;12.48;2.42;;;4.20;99.90;;;;;;4962827;28;20063;-58
2022/03/19 01:23:41;;;;;;;12.90;2.13;;;4.10;99.90;;;;;;4961442;28;20039;-58
2022/03/19 01:26:07;;;;;;;15.25;2.13;;;4.20;99.90;;;;;;4962908;29;20528;-59
2022/03/19 01:28:33;;;;;;;15.27;2.47;;;4.10;99.90;;;;;;4960269;29;20054;-58
2022/03/19 01:30:59;;;;;;;12.50;2.38;;;4.10;99.90;;;;;;4962315;29;20035;-59
2022/03/19 01:33:24;;;;;;;9.48;2.28;;;4.10;99.90;;;;;;4962337;29;20047;-59
2022/03/19 01:35:50;;;;;;;10.15;2.13;;;4.10;99.90;;;;;;4961928;28;20066;-59
2022/03/19 01:38:16;;;;;;;12.38;2.70;;;4.00;99.90;;;;;;4962375;29;20046;-59
2022/03/19 01:40:42;;;;;;;17.50;2.53;;;4.00;99.90;;;;;;4961343;28;20051;-58
2022/03/19 01:43:07;;;;;;;16.23;3.03;;;4.00;99.90;;;;;;4962702;28;20047;-58
2022/03/19 01:45:33;;;;;;;16.50;2.88;;;4.00;99.90;;;;;;4961191;28;20565;-59
2022/03/19 01:47:59;;;;;;;14.50;2.65;;;4.00;99.90;;;;;;4962349;29;20094;-59
2022/03/19 01:50:26;;;;;;;16.20;2.67;;;3.90;99.90;;;;;;4962231;28;20095;-59
2022/03/19 01:52:53;;;;;;;10.55;2.13;;;4.00;99.90;;;;;;4959882;29;20046;-57
2022/03/19 01:55:24;;;;;;;11.82;2.20;;;3.90;99.90;;;;;;4962327;28;20147;-60
2022/03/19 01:57:52;;;;;;;11.48;2.08;;;4.00;99.90;;;;;;4961226;28;20047;-59
2022/03/19 02:00:22;;;;;;;11.32;2.70;;;3.90;99.90;;;;;;4961156;29;20054;-58
2022/03/19 02:02:49;;;;;;;13.52;3.05;;;4.10;99.90;;;;;;4961508;28;20110;-59
2022/03/19 02:05:18;;;;;;;16.90;2.67;;;3.90;99.90;;;;;;4960632;29;20185;-59
2022/03/19 02:07:45;;;;;;;11.00;2.17;;;3.90;99.90;;;;;;4962183;28;20074;-59
2022/03/19 02:10:13;;;;;;;12.02;2.30;;;3.90;99.90;;;;;;4961187;28;20051;-59
2022/03/19 02:12:44;;;;;;;14.40;2.97;;;3.90;99.90;;;;;;4962352;28;20062;-59
2022/03/19 02:15:11;;;;;;;12.15;2.20;;;3.80;99.90;;;;;;4960837;28;20107;-59
2022/03/19 02:17:37;;;;;;;11.32;3.75;;;3.90;99.90;;;;;;4961936;28;20086;-59
2022/03/19 02:20:05;;;;;;;13.20;2.78;;;3.80;99.90;;;;;;4961472;28;20051;-59
2022/03/19 02:22:31;;;;;;;15.20;2.88;;;3.80;99.90;;;;;;4960382;29;20054;-58
2022/03/19 02:27:43;;;;;;;12.63;3.78;;;3.80;99.90;;;;;;4961000;29;20424;-59
2022/03/19 02:30:10;;;;;;;11.40;2.17;;;3.70;99.90;;;;;;4962337;28;20032;-58
2022/03/19 02:32:39;;;;;;;13.60;3.15;;;3.70;99.90;;;;;;4959485;29;20055;-58
2022/03/19 02:35:05;;;;;;;12.20;2.90;;;3.70;99.90;;;;;;4961481;28;20051;-58
2022/03/19 02:37:43;;;;;;;12.25;2.58;;;3.60;99.90;;;;;;4960372;29;20126;-58
2022/03/19 02:40:19;;;;;;;11.02;2.60;;;3.50;99.90;;;;;;4943700;29;20047;-59
2022/03/19 02:42:51;;;;;;;17.35;3.33;;;3.50;99.90;;;;;;4962005;28;20103;-59
2022/03/19 02:45:18;;;;;;;14.25;2.80;;;3.50;99.90;;;;;;4960406;28;20074;-58
2022/03/19 02:47:59;;;;;;;12.50;3.15;;;3.60;99.90;;;;;;4960385;29;20099;-59
2022/03/19 02:50:31;;;;;;;14.13;2.60;;;3.60;99.90;;;;;;4961416;28;20062;-58
2022/03/19 02:52:58;;;;;;;16.25;3.10;;;3.60;99.90;;;;;;4961020;28;20050;-58
2022/03/19 02:55:24;;;;;;;15.15;3.05;;;3.60;99.90;;;;;;4961969;28;20059;-59
2022/03/19 02:57:50;;;;;;;13.25;2.80;;;3.60;99.90;;;;;;4960565;28;20051;-59
2022/03/19 03:00:16;;;;;;;12.93;2.60;;;3.60;99.90;;;;;;4960658;29;20558;-59
2022/03/19 03:02:42;;;;;;;13.48;2.40;;;3.50;99.90;;;;;;4960797;28;20071;-59
2022/03/19 03:05:11;;;;;;;13.20;2.85;;;3.60;99.90;;;;;;4963165;28;20081;-57
2022/03/19 03:07:37;;;;;;;15.45;2.83;;;3.50;99.90;;;;;;4964739;28;20093;-59
2022/03/19 03:10:03;;;;;;;12.20;2.78;;;3.60;99.90;;;;;;4962957;29;20043;-59
2022/03/19 03:12:29;;;;;;;14.73;3.08;;;3.50;99.90;;;;;;4965052;28;20040;-58
2022/03/19 03:14:55;;;;;;;19.08;2.85;;;3.60;99.90;;;;;;4964108;29;20066;-58
2022/03/19 03:17:22;;;;;;;12.38;3.05;;;3.70;99.90;;;;;;4964919;28;20054;-58
2022/03/19 03:19:47;;;;;;;15.93;3.25;;;3.40;99.90;;;;;;4964069;28;20093;-59
2022/03/19 03:22:13;;;;;;;15.80;3.42;;;3.40;99.90;;;;;;4964867;29;20062;-58
2022/03/19 03:24:39;;;;;;;12.82;3.00;;;3.40;99.90;;;;;;4964446;29;20583;-58
2022/03/19 03:27:05;;;;;;;15.25;4.13;;;3.30;99.90;;;;;;4964260;28;20126;-59
2022/03/19 03:29:31;;;;;;;8.65;3.15;;;3.30;99.90;;;;;;4964642;29;20051;-58
2022/03/19 03:31:56;;;;;;;18.02;3.00;;;3.30;99.90;;;;;;4963733;28;20123;-59
2022/03/19 03:34:22;;;;;;;11.57;3.08;;;3.40;99.90;;;;;;4965066;29;20454;-58
2022/03/19 03:36:48;;;;;;;15.48;3.40;;;3.30;99.90;;;;;;4963366;29;20042;-59
2022/03/19 03:39:13;;;;;;;10.68;3.08;;;3.30;99.90;;;;;;4964773;29;20063;-58
2022/03/19 03:41:39;;;;;;;15.65;4.47;;;3.30;99.90;;;;;;4963916;29;20051;-57
2022/03/19 03:44:05;;;;;;;12.27;3.10;;;3.30;99.90;;;;;;4962738;29;20051;-58
2022/03/19 03:46:31;;;;;;;15.30;3.42;;;3.30;99.90;;;;;;4947040;29;20059;-59
2022/03/19 03:48:57;;;;;;;15.93;3.20;;;3.20;99.90;;;;;;4963321;28;20085;-59
2022/03/19 03:51:23;;;;;;;16.45;3.42;;;3.20;99.90;;;;;;4964347;28;20043;-59
2022/03/19 03:53:48;;;;;;;16.83;3.53;;;3.20;99.90;;;;;;4963104;29;20051;-59
2022/03/19 03:56:14;;;;;;;12.60;3.47;;;3.20;99.90;;;;;;4964395;28;20043;-59
2022/03/19 03:58:43;;;;;;;15.02;4.45;;;3.30;99.90;;;;;;4963661;28;20442;-59
2022/03/19 04:01:09;;;;;;;13.98;3.53;;;3.20;99.90;;;;;;4963742;28;20039;-59
2022/03/19 04:03:35;;;;;;;16.30;3.70;;;3.20;99.90;;;;;;4963987;29;20413;-59
2022/03/19 04:06:01;;;;;;;15.65;4.35;;;3.20;99.90;;;;;;4945862;29;20040;-59
2022/03/19 04:08:26;;;;;;;15.32;3.15;;;3.10;99.90;;;;;;4964377;29;20062;-60
2022/03/19 04:10:52;;;;;;;16.58;3.88;;;3.10;99.90;;;;;;4962843;29;20054;-58
2022/03/19 04:13:18;;;;;;;14.63;3.88;;;3.10;99.90;;;;;;4964185;29;20043;-58
2022/03/19 04:15:44;;;;;;;19.48;3.83;;;3.10;99.90;;;;;;4962566;28;20066;-58
2022/03/19 04:18:09;;;;;;;17.90;3.47;;;3.20;99.90;;;;;;4961906;28;20050;-58
2022/03/19 04:20:35;;;;;;;14.35;3.92;;;3.10;99.90;;;;;;4962421;29;20451;-59
2022/03/19 04:23:01;;;;;;;16.30;4.00;;;3.10;99.90;;;;;;4962816;28;20106;-60
2022/03/19 04:25:27;;;;;;;12.73;3.60;;;3.00;99.90;;;;;;4962201;29;20035;-58
2022/03/19 04:27:55;;;;;;;17.23;3.95;;;3.10;99.90;;;;;;4962486;29;20051;-59
2022/03/19 04:30:24;;;;;;;18.10;4.07;;;3.00;99.90;;;;;;4946813;29;20039;-59
2022/03/19 04:33:00;;;;;;;13.88;3.78;;;3.00;99.90;;;;;;4961553;29;20077;-58
2022/03/19 04:38:14;;;;;;;12.75;4.25;;;3.00;99.90;;;;;;4963550;28;20082;-59
2022/03/19 04:40:41;;;;;;;13.82;4.38;;;2.90;99.90;;;;;;4962496;28;20082;-59
2022/03/19 04:43:08;;;;;;;14.63;4.18;;;2.90;99.90;;;;;;4963654;28;20039;-59
2022/03/19 04:45:35;;;;;;;13.88;4.07;;;2.80;99.90;;;;;;4962124;29;20036;-58
2022/03/19 04:48:01;;;;;;;11.00;3.58;;;2.90;99.90;;;;;;4963160;28;20053;-59
2022/03/19 04:50:27;;;;;;;12.02;4.63;;;2.80;99.90;;;;;;4962868;29;20055;-59
2022/03/19 04:52:54;;;;;;;19.52;6.47;;;2.80;99.90;;;;;;4962374;29;20047;-59
2022/03/19 04:55:20;;;;;;;17.00;4.60;;;2.90;99.90;;;;;;4963320;28;20044;-58
2022/03/19 04:57:48;;;;;;;12.75;4.50;;;2.90;99.90;;;;;;4960603;29;20043;-58
2022/03/19 05:00:16;;;;;;;15.85;4.75;;;2.90;99.90;;;;;;4963478;28;20110;-58
2022/03/19 05:02:43;;;;;;;14.52;4.50;;;2.90;99.90;;;;;;4962229;28;20051;-59
2022/03/19 05:05:09;;;;;;;15.80;4.95;;;2.90;99.90;;;;;;4962849;28;20050;-59
2022/03/19 05:07:35;;;;;;;20.77;6.65;;;3.00;99.90;;;;;;4962489;28;20131;-59
2022/03/19 05:12:50;;;;;;;16.58;5.53;;;2.90;99.90;;;;;;4963091;29;20054;-58
2022/03/19 05:15:17;;;;;;;15.73;5.50;;;2.90;99.90;;;;;;4944328;29;20051;-58
2022/03/19 05:17:44;;;;;;;15.45;5.32;;;2.90;99.90;;;;;;4962388;28;20051;-58
2022/03/19 05:20:11;;;;;;;15.35;6.20;;;2.80;99.90;;;;;;4962150;28;20047;-58
2022/03/19 05:22:37;;;;;;;14.02;5.15;;;2.80;99.90;;;;;;4962229;28;20093;-59
2022/03/19 05:25:04;;;;;;;15.50;5.68;;;2.80;99.90;;;;;;4961217;29;20047;-59
2022/03/19 05:27:30;;;;;;;15.52;5.70;;;2.90;99.90;;;;;;4960163;28;20047;-58
2022/03/19 05:29:56;;;;;;;18.45;6.55;;;2.90;99.90;;;;;;4962303;29;20101;-59
2022/03/19 05:32:22;;;;;;;16.00;6.47;;;2.90;99.90;;;;;;4961554;29;20051;-59
2022/03/19 05:34:48;;;;;;;18.35;6.30;;;2.90;99.90;;;;;;4962748;28;20050;-59
2022/03/19 05:37:14;;;;;;;19.67;6.40;;;2.90;99.90;;;;;;4961968;29;20059;-59
2022/03/19 05:39:40;;;;;;;14.65;5.80;;;2.80;99.90;;;;;;4961955;29;20074;-59
2022/03/19 05:42:06;;;;;;;21.67;6.45;;;2.90;99.90;;;;;;4944822;29;20047;-59
2022/03/19 05:44:32;;;;;;;15.68;6.47;;;2.90;99.90;;;;;;4961449;28;20043;-58
2022/03/19 05:46:59;;;;;;;21.13;7.05;;;2.90;99.90;;;;;;4962359;28;20039;-58
2022/03/19 05:49:29;;;;;;;23.50;7.07;;;2.80;99.90;;;;;;4961323;28;20059;-58
2022/03/19 05:51:56;;;;;;;19.17;6.93;;;2.80;99.90;;;;;;4961251;29;20043;-59
2022/03/19 05:54:23;;;;;;;16.13;6.53;;;2.90;99.90;;;;;;4961876;28;20043;-57
2022/03/19 05:56:49;;;;;;;18.48;6.97;;;2.90;99.90;;;;;;4960662;29;20042;-59
2022/03/19 05:59:15;;;;;;;15.73;6.70;;;2.90;99.90;;;;;;4960893;28;20126;-59
2022/03/19 06:01:42;;;;;;;19.70;7.50;;;2.90;99.90;;;;;;4961425;29;20125;-61
2022/03/19 06:04:08;;;;;;;24.17;7.57;;;3.00;99.90;;;;;;4960983;29;20039;-59
2022/03/19 06:06:34;;;;;;;21.35;8.23;;;3.00;99.90;;;;;;4960958;28;20070;-58
2022/03/19 06:08:59;;;;;;;17.70;7.72;;;2.90;99.90;;;;;;4961020;29;20051;-58
2022/03/19 06:11:25;;;;;;;18.17;6.88;;;3.00;99.90;;;;;;4961572;29;20054;-59
2022/03/19 06:13:51;;;;;;;19.00;7.55;;;3.00;99.90;;;;;;4960380;29;20419;-58
2022/03/19 06:16:17;;;;;;;20.85;8.30;;;3.10;99.90;;;;;;4961763;28;20047;-59
2022/03/19 06:18:46;;;;;;;16.25;7.53;;;3.10;99.90;;;;;;4961277;28;20059;-59
2022/03/19 06:21:12;;;;;;;20.05;8.32;;;3.10;99.90;;;;;;4962349;28;20043;-59
2022/03/19 06:23:38;;;;;;;22.38;8.05;;;3.10;99.90;;;;;;4960917;28;20083;-59
2022/03/19 06:26:04;;;;;;;20.15;8.18;;;3.10;99.90;;;;;;4945023;29;20449;-58
2022/03/19 06:28:29;;;;;;;16.73;8.27;;;3.20;99.90;;;;;;4961067;29;20089;-59
2022/03/19 06:30:55;;;;;;;20.35;9.80;;;3.20;99.90;;;;;;4960413;29;20050;-58
2022/03/19 06:33:21;;;;;;;21.48;8.93;;;3.30;99.90;;;;;;4928685;29;20133;-58
2022/03/19 06:38:31;;;;;;;18.08;8.63;;;3.30;99.90;;;;;;4959576;29;20098;-59
2022/03/19 06:41:00;;;;;;;18.52;8.88;;;3.30;99.90;;;;;;4958818;28;20107;-58
2022/03/19 06:43:26;;;;;;;22.20;9.55;;;3.40;99.90;;;;;;4942684;29;20115;-58
2022/03/19 06:45:57;;;;;;;19.35;8.88;;;3.40;99.90;;;;;;4961040;28;20043;-58
2022/03/19 06:48:23;;;;;;;19.63;10.55;;;3.50;99.90;;;;;;4961112;28;20047;-59
2022/03/19 06:50:50;;;;;;;24.52;9.82;;;3.60;99.90;;;;;;4960062;28;20051;-58
2022/03/19 06:53:16;;;;;;;21.80;9.43;;;3.50;99.90;;;;;;4959202;29;20050;-59
2022/03/19 06:55:42;;;;;;;22.33;8.98;;;3.70;99.90;;;;;;4961976;28;20053;-59
2022/03/19 06:58:07;;;;;;;20.45;9.63;;;3.70;99.90;;;;;;4960393;29;20130;-58
2022/03/19 07:00:35;;;;;;;18.75;9.05;;;3.70;99.90;;;;;;4960109;29;20454;-59
2022/03/19 07:03:01;;;;;;;21.65;9.50;;;3.80;99.90;;;;;;4959580;29;20130;-58
2022/03/19 07:05:28;;;;;;;20.15;9.38;;;3.80;99.90;;;;;;4960813;29;20472;-59
2022/03/19 07:07:57;;;;;;;21.88;8.70;;;3.90;99.90;;;;;;4961291;28;20051;-59
2022/03/19 07:10:23;;;;;;;21.38;8.05;;;4.00;99.90;;;;;;4960505;28;20074;-59
2022/03/19 07:12:54;;;;;;;18.55;8.48;;;4.10;99.90;;;;;;4961500;28;20146;-59
2022/03/19 07:15:24;;;;;;;21.92;8.60;;;4.20;99.90;;;;;;4960043;28;20043;-58
2022/03/19 07:17:50;;;;;;;17.17;7.93;;;4.20;99.90;;;;;;4959331;29;20067;-59
2022/03/19 07:20:17;;;;;;;22.13;8.70;;;4.30;99.90;;;;;;4960932;29;20545;-59
2022/03/19 07:22:45;;;;;;;18.95;7.72;;;4.30;99.90;;;;;;4960403;28;20046;-59
2022/03/19 07:25:11;;;;;;;21.88;9.02;;;4.40;99.90;;;;;;4961064;28;20515;-58
2022/03/19 07:27:37;;;;;;;21.52;7.90;;;4.50;99.90;;;;;;4959206;28;20049;-58
2022/03/19 07:30:03;;;;;;;21.23;7.63;;;4.60;99.90;;;;;;4964617;29;20043;-59
2022/03/19 07:32:28;;;;;;;24.90;8.00;;;4.60;99.90;;;;;;4963901;28;20047;-59
2022/03/19 07:34:55;;;;;;;19.77;7.70;;;4.70;99.90;;;;;;4964630;28;20126;-59
2022/03/19 07:37:20;;;;;;;18.67;7.05;;;4.80;99.90;;;;;;4964076;28;20043;-59
2022/03/19 07:39:46;;;;;;;18.50;7.57;;;4.90;99.90;;;;;;4963954;29;20858;-59
2022/03/19 07:42:12;;;;;;;16.75;7.05;;;5.00;99.90;;;;;;4964444;29;20094;-59
2022/03/19 07:44:38;;;;;;;18.00;7.50;;;5.10;99.90;;;;;;4963611;28;20043;-58
2022/03/19 07:47:05;;;;;;;19.92;6.25;;;5.10;99.90;;;;;;4964388;29;20043;-59
2022/03/19 07:49:30;;;;;;;19.25;6.75;;;5.20;99.90;;;;;;4963124;29;20044;-59
2022/03/19 07:51:56;;;;;;;18.90;7.05;;;5.30;99.90;;;;;;4962128;28;20062;-58
2022/03/19 07:54:27;;;;;;;19.38;6.95;;;5.30;99.90;;;;;;4963687;29;20039;-58
2022/03/19 07:56:53;;;;;;;20.38;6.80;;;5.40;99.90;;;;;;4962467;29;20051;-59
2022/03/19 07:59:20;;;;;;;18.75;5.72;;;5.50;99.90;;;;;;4964274;28;20047;-58
2022/03/19 08:01:48;;;;;;;20.20;6.63;;;5.60;99.90;;;;;;4963235;28;20035;-58
2022/03/19 08:04:15;;;;;;;19.70;5.68;;;5.70;99.90;;;;;;4964384;28;20043;-58
2022/03/19 08:06:40;;;;;;;19.92;5.90;;;5.80;99.90;;;;;;4962909;28;20054;-58
2022/03/19 08:09:08;;;;;;;15.23;5.15;;;5.90;99.90;;;;;;4964109;28;20459;-59
2022/03/19 08:11:35;;;;;;;17.58;5.88;;;6.00;99.90;;;;;;4978328;28;20075;-59
2022/03/19 08:14:01;;;;;;;17.00;5.68;;;6.10;99.90;;;;;;4963087;29;20046;-59
2022/03/19 08:16:26;;;;;;;22.08;5.93;;;6.20;99.90;;;;;;4963636;28;20047;-59
2022/03/19 08:18:53;;;;;;;15.82;5.32;;;6.30;99.90;;;;;;4961488;29;20055;-59
2022/03/19 08:21:18;;;;;;;17.05;5.32;;;6.40;99.90;;;;;;4964183;29;20043;-58
2022/03/19 08:23:46;;;;;;;18.20;5.20;;;6.40;99.90;;;;;;4962544;28;20058;-59
2022/03/19 08:26:12;;;;;;;20.13;5.80;;;6.50;99.90;;;;;;4962516;29;20047;-60
2022/03/19 08:28:38;;;;;;;17.38;5.53;;;6.60;99.90;;;;;;4963095;28;20050;-59
2022/03/19 08:31:03;;;;;;;17.35;5.40;;;6.60;99.90;;;;;;4962900;29;20051;-59
2022/03/19 08:33:29;;;;;;;16.63;5.40;;;6.70;99.90;;;;;;4961814;28;20415;-59
2022/03/19 08:35:55;;;;;;;16.88;4.95;;;6.80;99.90;;;;;;4962642;28;20057;-59
2022/03/19 08:41:05;;;;;;;16.17;4.60;;;6.90;99.90;;;;;;4962437;29;20059;-59
2022/03/19 08:43:31;;;;;;;15.68;5.57;;;7.00;99.90;;;;;;4963238;28;20126;-58
2022/03/19 08:45:57;;;;;;;17.63;5.38;;;7.00;99.90;;;;;;4962530;29;20496;-58
2022/03/19 08:48:22;;;;;;;23.98;4.40;;;7.10;99.90;;;;;;4945453;29;20040;-59
2022/03/19 08:50:48;;;;;;;14.60;4.32;;;7.10;99.90;;;;;;4949410;29;20113;-59
2022/03/19 08:53:15;;;;;;;22.67;6.03;;;7.20;99.90;;;;;;4962043;29;20047;-58
2022/03/19 08:55:41;;;;;;;18.60;4.55;;;7.30;99.90;;;;;;4963422;28;20046;-60
2022/03/19 08:58:07;;;;;;;17.23;4.35;;;7.40;99.90;;;;;;4962057;28;20066;-59
2022/03/19 09:00:34;;;;;;;15.43;4.38;;;7.50;99.90;;;;;;4962888;28;20598;-59
2022/03/19 09:03:00;;;;;;;16.15;5.15;;;7.50;99.90;;;;;;4961043;28;20043;-59
2022/03/19 09:05:30;;;;;;;14.52;4.10;;;7.60;99.90;;;;;;4962313;29;20050;-59
2022/03/19 09:07:56;;;;;;;14.77;3.75;;;7.70;99.90;;;;;;4962722;28;20047;-58
2022/03/19 09:10:22;;;;;;;11.77;3.50;;;7.70;99.90;;;;;;4961916;28;20057;-59
2022/03/19 09:12:48;;;;;;;16.48;4.18;;;7.80;99.90;;;;;;4963142;28;20086;-59
2022/03/19 09:15:13;;;;;;;17.98;3.67;;;7.80;99.90;;;;;;4960279;29;20062;-58
2022/03/19 09:17:41;;;;;;;13.52;4.75;;;7.90;99.90;;;;;;4962513;28;20051;-59
2022/03/19 09:20:10;;;;;;;9.77;3.25;;;8.00;99.90;;;;;;4962330;28;20172;-59
2022/03/19 09:22:36;;;;;;;13.00;3.00;;;8.00;99.90;;;;;;4962146;28;20111;-58
2022/03/19 09:25:02;;;;;;;14.00;3.05;;;8.20;99.90;;;;;;4962733;28;20610;-59
2022/03/19 09:27:28;;;;;;;15.60;4.00;;;8.20;99.90;;;;;;4961634;29;20047;-59
2022/03/19 09:29:54;;;;;;;17.70;3.05;;;8.10;99.90;;;;;;4961530;29;20126;-59
2022/03/19 09:32:19;;;;;;;13.13;3.20;;;8.20;99.90;;;;;;4960059;29;20066;-58
2022/03/19 09:34:48;;;;;;;11.65;2.80;;;8.10;99.90;;;;;;4962794;28;20404;-59
2022/03/19 09:37:15;;;;;;;11.75;2.88;;;8.20;99.90;;;;;;4962154;29;20058;-58
2022/03/19 09:39:41;;;;;;;12.90;3.25;;;8.20;99.90;;;;;;4961951;28;20043;-59
2022/03/19 09:42:12;;;;;;;12.05;3.45;;;8.40;99.90;;;;;;4962157;29;20130;-58
2022/03/19 09:44:39;;;;;;;12.02;3.33;;;8.40;99.90;;;;;;4961400;28;20051;-59
2022/03/19 09:47:05;;;;;;;13.18;3.45;;;8.50;99.90;;;;;;4962451;28;20039;-59
2022/03/19 09:49:31;;;;;;;15.18;3.58;;;8.50;99.90;;;;;;4961307;28;20043;-59
2022/03/19 09:52:01;;;;;;;11.30;2.88;;;8.50;99.90;;;;;;4962457;29;20046;-59
2022/03/19 09:54:27;;;;;;;12.55;3.05;;;8.60;99.90;;;;;;4962123;28;20051;-59
2022/03/19 09:56:53;;;;;;;11.50;2.88;;;8.70;99.90;;;;;;4961565;29;20048;-59
2022/03/19 09:59:22;;;;;;;11.65;2.80;;;8.70;99.90;;;;;;4962263;29;20082;-59
2022/03/19 10:01:48;;;;;;;11.75;3.53;;;8.70;99.90;;;;;;4961275;28;20052;-58
2022/03/19 10:04:20;;;;;;;11.70;3.45;;;8.70;99.90;;;;;;4962353;28;20043;-56
2022/03/19 10:09:46;;;;;;;15.60;3.17;;;8.80;99.90;;;;;;4961449;29;20095;-59
2022/03/19 10:12:14;;;;;;;14.25;3.55;;;8.80;99.90;;;;;;4962290;28;20061;-59
2022/03/19 10:14:39;;;;;;;10.30;2.88;;;8.80;99.90;;;;;;4962030;28;20078;-58
2022/03/19 10:17:08;;;;;;;12.50;3.90;;;8.90;99.90;;;;;;4965807;28;20110;-58
2022/03/19 10:19:50;;;;;;;11.70;3.38;;;9.00;99.90;;;;;;4963520;29;20066;-59
2022/03/19 10:22:24;;;;;;;11.15;3.08;;;9.00;99.90;;;;;;4965686;28;20055;-59
2022/03/19 10:24:56;;;;;;;12.68;3.20;;;9.00;99.90;;;;;;4965562;28;20047;-58
2022/03/19 10:27:22;;;;;;;;;;;9.10;99.90;;;;;;4965358;28;20054;-59
2022/03/19 10:30:09;;;;;;;15.05;3.65;;;9.10;99.90;;;;;;4966145;28;19922;-59
2022/03/19 10:32:37;;;;;;;11.25;2.88;;;9.10;99.90;;;;;;4963408;29;20074;-58
2022/03/19 10:35:03;;;;;;;12.07;3.10;;;9.30;99.90;;;;;;4963897;29;20055;-58
2022/03/19 10:37:47;;;;;;;11.77;3.22;;;9.40;99.90;;;;;;4965451;29;20050;-59
2022/03/19 10:40:13;;;;;;;12.90;2.97;;;9.50;99.90;;;;;;4964500;29;20087;-59
2022/03/19 10:42:40;;;;;;;10.02;2.85;;;9.50;99.90;;;;;;4965614;28;20043;-59
2022/03/19 10:45:11;;;;;;;10.32;2.72;;;9.50;99.90;;;;;;4964168;28;20628;-59
2022/03/19 10:47:45;;;;;;;12.20;2.90;;;9.50;99.90;;;;;;4963881;29;20059;-59
2022/03/19 10:50:20;;;;;;;11.93;2.47;;;9.50;99.90;;;;;;4964727;28;20054;-58
2022/03/19 10:52:47;;;;;;;10.98;2.85;;;9.50;99.90;;;;;;4964660;28;20049;-59
2022/03/19 10:55:13;;;;;;;12.68;3.08;;;9.60;99.90;;;;;;4963707;29;20051;-59
2022/03/19 10:57:39;;;;;;;11.35;3.42;;;9.60;99.90;;;;;;4964271;29;20114;-59
2022/03/19 11:00:05;;;;;;;10.07;2.60;;;9.70;99.90;;;;;;4964307;29;20315;-58
2022/03/19 11:02:32;;;;;;;8.00;1.95;;;9.70;99.90;;;;;;4962699;29;20049;-58
2022/03/19 11:04:59;;;;;;;8.73;2.20;;;9.70;99.90;;;;;;4964983;28;20098;-59
2022/03/19 11:07:29;;;;;;;8.88;2.63;;;9.80;99.90;;;;;;4947493;29;20070;-58
2022/03/19 11:09:57;;;;;;;7.68;2.42;;;9.80;99.90;;;;;;4964119;28;20039;-58
2022/03/19 11:12:28;;;;;;;8.85;2.22;;;9.70;99.90;;;;;;4964761;28;20555;-58
2022/03/19 11:14:56;;;;;;;10.73;2.33;;;9.90;99.90;;;;;;4962815;28;20595;-59
2022/03/19 11:17:33;;;;;;;6.90;2.00;;;10.00;99.90;;;;;;4961811;28;20054;-59
2022/03/19 11:20:05;;;;;;;8.27;2.10;;;10.00;99.90;;;;;;4964136;28;20059;-58
2022/03/19 11:22:40;;;;;;;;;;;10.20;99.90;;;;;;4964577;29;20047;-59
2022/03/19 11:25:25;;;;;;;10.93;2.63;;;10.20;99.90;;;;;;4959522;28;19923;-59
2022/03/19 11:28:00;;;;;;;9.40;2.33;;;10.20;99.90;;;;;;4962425;29;20039;-58
2022/03/19 11:30:28;;;;;;;9.20;2.63;;;10.30;99.90;;;;;;4962923;29;20054;-59
2022/03/19 11:33:10;;;;;;;10.40;2.50;;;10.40;99.90;;;;;;4962758;28;20097;-59
2022/03/19 11:35:38;;;;;;;10.10;2.85;;;10.50;99.90;;;;;;4961692;28;20047;-59
2022/03/19 11:38:20;;;;;;;7.63;2.10;;;10.50;99.90;;;;;;4962939;28;20050;-59
2022/03/19 11:40:55;;;;;;;10.25;2.08;;;10.60;99.90;;;;;;4962930;28;20579;-58
2022/03/19 11:43:27;;;;;;;7.47;2.00;;;10.70;99.90;;;;;;4961834;29;20043;-58
2022/03/19 11:46:06;;;;;;;8.98;2.38;;;10.70;99.90;;;;;;4962477;29;20053;-59
2022/03/19 11:48:35;;;;;;;7.28;2.35;;;10.70;99.90;;;;;;4963482;28;20050;-59
2022/03/19 11:51:25;;;;;;;6.38;1.55;;;10.80;99.90;;;;;;4964616;29;20357;-58
2022/03/19 11:54:49;;;;;;;6.53;1.50;;;10.90;99.90;;;;;;4963211;29;20047;-58
2022/03/19 11:57:16;;;;;;;10.45;1.85;;;10.90;99.90;;;;;;4884987;29;20059;-58
2022/03/19 11:59:46;;;;;;;5.95;1.90;;;11.00;99.90;;;;;;4885566;29;20045;-58
2022/03/19 12:02:14;;;;;;;5.63;1.90;;;10.90;99.90;;;;;;4934303;28;20063;-59
2022/03/19 12:04:52;;;;;;;7.40;1.90;;;11.00;99.90;;;;;;4964252;29;20051;-59
2022/03/19 12:07:41;;;;;;;6.57;1.48;;;11.00;99.90;;;;;;4963238;28;20043;-58
2022/03/19 12:10:14;;;;;;;6.93;1.88;;;11.10;99.90;;;;;;4960642;28;20102;-59
2022/03/19 12:12:44;;;;;;;9.52;2.35;;;11.10;99.90;;;;;;4961531;29;20122;-59
2022/03/19 12:15:31;;;;;;;9.45;1.95;;;11.20;99.90;;;;;;4959014;28;20557;-59
2022/03/19 12:18:43;;;;;;;6.38;1.80;;;11.20;99.90;;;;;;4959287;29;20535;-59
2022/03/19 12:21:09;;;;;;;7.43;2.10;;;11.10;99.90;;;;;;4960223;28;20059;-59
2022/03/19 12:23:42;;;;;;;7.25;2.50;;;11.30;99.90;;;;;;4958931;28;20062;-58
2022/03/19 12:26:10;;;;;;;9.25;2.60;;;11.50;99.90;;;;;;4940451;29;20507;-58
2022/03/19 12:28:36;;;;;;;7.03;2.00;;;11.40;99.90;;;;;;4938400;29;20063;-58
2022/03/19 12:31:11;;;;;;;9.50;2.22;;;11.40;99.90;;;;;;4939918;29;20040;-59
2022/03/19 12:33:37;;;;;;;9.05;2.33;;;11.40;99.90;;;;;;4940656;29;20059;-58
2022/03/19 12:36:17;;;;;;;6.93;2.15;;;11.40;99.90;;;;;;4949504;29;20086;-59
2022/03/19 12:38:44;;;;;;;7.82;1.77;;;11.40;99.90;;;;;;4940207;29;20043;-58
2022/03/19 12:41:24;;;;;;;8.10;2.38;;;11.50;99.90;;;;;;4940074;29;20036;-59
2022/03/19 12:43:50;;;;;;;7.47;1.83;;;11.40;99.90;;;;;;4939763;29;20077;-58
2022/03/19 12:46:23;;;;;;;6.03;2.20;;;11.50;99.90;;;;;;4940096;29;20044;-58
2022/03/19 12:48:49;;;;;;;6.97;1.58;;;11.60;99.90;;;;;;4939185;29;20051;-58
2022/03/19 12:51:27;;;;;;;5.32;1.55;;;11.60;99.90;;;;;;4923261;29;20040;-59
2022/03/19 12:53:53;;;;;;;6.45;1.45;;;11.60;99.90;;;;;;4939182;29;20492;-58
2022/03/19 12:56:21;;;;;;;4.32;1.23;;;11.60;99.90;;;;;;4940108;29;20055;-58
2022/03/19 12:58:55;;;;;;;7.80;1.65;;;11.60;99.90;;;;;;4939837;29;20059;-59
2022/03/19 13:01:27;;;;;;;5.70;1.70;;;11.60;99.90;;;;;;4939207;29;20062;-59
2022/03/19 13:03:58;;;;;;;6.93;2.35;;;11.60;99.90;;;;;;4943057;29;20046;-58
2022/03/19 13:06:41;;;;;;;5.80;1.40;;;11.70;99.90;;;;;;4956731;29;20086;-59
2022/03/19 13:09:08;;;;;;;6.50;1.88;;;11.70;99.90;;;;;;4957996;29;20130;-59